createdAt,value
2019-06-01T00:01:49.599Z,14.20
2019-06-01T00:04:19.017Z,14.20
2019-06-01T00:06:49.392Z,14.20
2019-06-01T00:09:20.242Z,14.10
2019-06-01T00:11:50.026Z,14.10
2019-06-01T00:14:20.103Z,14.00
2019-06-01T00:16:50.390Z,13.90
2019-06-01T00:19:20.294Z,13.90
2019-06-01T00:21:52.308Z,13.80
2019-06-01T00:24:22.866Z,13.90
2019-06-01T00:26:52.271Z,13.90
2019-06-01T00:29:23.439Z,13.90
2019-06-01T00:31:53.544Z,13.80
2019-06-01T00:34:24.663Z,13.80
2019-06-01T00:36:55.064Z,13.80
2019-06-01T00:39:24.559Z,13.70
2019-06-01T00:41:54.030Z,13.60
2019-06-01T00:44:23.650Z,13.60
2019-06-01T00:46:54.353Z,13.50
2019-06-01T00:49:23.784Z,13.60
2019-06-01T00:51:53.795Z,13.60
2019-06-01T00:54:23.295Z,13.60
2019-06-01T00:56:53.888Z,13.60
2019-06-01T00:59:24.097Z,13.50
2019-06-01T01:01:54.235Z,13.50
2019-06-01T01:04:24.145Z,13.50
2019-06-01T01:06:54.686Z,13.50
2019-06-01T01:09:25.027Z,13.40
2019-06-01T01:11:55.314Z,13.30
2019-06-01T01:14:25.209Z,13.20
2019-06-01T01:16:55.676Z,13.20
2019-06-01T01:19:25.163Z,13.20
2019-06-01T01:21:56.405Z,13.20
2019-06-01T01:24:27.956Z,13.20
2019-06-01T01:26:57.292Z,13.10
2019-06-01T01:29:26.702Z,13.10
2019-06-01T01:31:57.316Z,13.10
2019-06-01T01:34:32.047Z,13.10
2019-06-01T01:37:02.006Z,13.10
2019-06-01T01:39:31.780Z,13.10
2019-06-01T01:42:01.188Z,13.00
2019-06-01T01:44:30.966Z,13.00
2019-06-01T01:47:02.498Z,13.10
2019-06-01T01:49:31.968Z,13.10
2019-06-01T01:52:05.373Z,13.00
2019-06-01T01:54:35.555Z,13.00
2019-06-01T01:57:07.194Z,12.90
2019-06-01T01:59:36.047Z,13.00
2019-06-01T02:02:05.482Z,12.90
2019-06-01T02:04:35.369Z,12.90
2019-06-01T02:07:06.455Z,12.90
2019-06-01T02:09:39.145Z,12.90
2019-06-01T02:12:09.324Z,12.80
2019-06-01T02:14:39.889Z,12.80
2019-06-01T02:17:09.316Z,12.70
2019-06-01T02:19:39.117Z,12.70
2019-06-01T02:22:08.504Z,12.60
2019-06-01T02:24:37.940Z,12.60
2019-06-01T02:27:07.350Z,12.60
2019-06-01T02:29:37.344Z,12.60
2019-06-01T02:32:07.547Z,12.60
2019-06-01T02:34:38.309Z,12.50
2019-06-01T02:37:08.798Z,12.40
2019-06-01T02:39:40.300Z,12.40
2019-06-01T02:42:11.277Z,12.40
2019-06-01T02:44:41.531Z,12.30
2019-06-01T02:47:11.634Z,12.40
2019-06-01T02:49:41.025Z,12.40
2019-06-01T02:52:10.418Z,12.40
2019-06-01T02:54:40.235Z,12.40
2019-06-01T02:57:10.505Z,12.30
2019-06-01T02:59:39.952Z,12.30
2019-06-01T03:02:14.294Z,12.30
2019-06-01T03:04:42.234Z,12.30
2019-06-01T03:07:13.446Z,12.20
2019-06-01T03:09:45.360Z,12.20
2019-06-01T03:12:18.358Z,12.30
2019-06-01T03:14:49.850Z,12.30
2019-06-01T03:17:22.188Z,12.40
2019-06-01T03:19:57.826Z,12.40
2019-06-01T03:22:28.280Z,12.40
2019-06-01T03:25:01.909Z,12.40
2019-06-01T03:27:35.060Z,12.30
2019-06-01T03:30:09.834Z,12.30
2019-06-01T03:32:39.306Z,12.30
2019-06-01T03:35:08.948Z,12.30
2019-06-01T03:37:39.057Z,12.30
2019-06-01T03:40:21.721Z,12.20
2019-06-01T03:42:41.734Z,12.20
2019-06-01T03:45:12.853Z,12.30
2019-06-01T03:47:43.168Z,12.20
2019-06-01T03:50:13.361Z,12.10
2019-06-01T03:52:43.386Z,12.20
2019-06-01T03:55:13.658Z,12.20
2019-06-01T03:57:43.056Z,12.20
2019-06-01T04:00:13.330Z,12.10
2019-06-01T04:02:43.539Z,12.20
2019-06-01T04:05:13.937Z,12.20
2019-06-01T04:07:45.169Z,12.20
2019-06-01T04:10:15.948Z,12.30
2019-06-01T04:12:45.360Z,12.40
2019-06-01T04:15:16.884Z,12.40
2019-06-01T04:17:46.773Z,12.50
2019-06-01T04:20:18.153Z,12.50
2019-06-01T04:22:48.041Z,12.60
2019-06-01T04:25:19.359Z,12.70
2019-06-01T04:27:48.689Z,12.70
2019-06-01T04:30:19.923Z,12.70
2019-06-01T04:32:50.642Z,12.60
2019-06-01T04:35:20.098Z,12.70
2019-06-01T04:37:49.879Z,12.60
2019-06-01T04:40:19.281Z,12.70
2019-06-01T04:42:49.557Z,12.70
2019-06-01T04:45:22.945Z,12.70
2019-06-01T04:47:52.964Z,12.80
2019-06-01T04:50:22.344Z,12.80
2019-06-01T04:52:52.297Z,12.90
2019-06-01T04:55:22.380Z,12.90
2019-06-01T04:57:54.184Z,12.90
2019-06-01T05:00:27.701Z,13.00
2019-06-01T05:03:04.874Z,13.00
2019-06-01T05:05:26.489Z,13.10
2019-06-01T05:07:57.276Z,13.20
2019-06-01T05:10:27.603Z,13.30
2019-06-01T05:12:56.994Z,13.30
2019-06-01T05:15:26.399Z,13.40
2019-06-01T05:17:59.139Z,13.50
2019-06-01T05:20:32.365Z,13.60
2019-06-01T05:23:01.809Z,13.60
2019-06-01T05:25:31.775Z,13.80
2019-06-01T05:28:01.229Z,13.90
2019-06-01T05:30:31.320Z,14.00
2019-06-01T05:33:01.154Z,14.20
2019-06-01T05:35:31.534Z,14.40
2019-06-01T05:38:01.484Z,14.70
2019-06-01T05:40:32.018Z,15.20
2019-06-01T05:43:02.433Z,16.20
2019-06-01T05:45:31.804Z,17.50
2019-06-01T05:48:01.369Z,19.00
2019-06-01T05:50:31.817Z,20.70
2019-06-01T05:53:01.962Z,21.80
2019-06-01T05:55:32.188Z,22.70
2019-06-01T05:58:02.190Z,23.30
2019-06-01T06:00:42.921Z,24.40
2019-06-01T06:03:16.175Z,25.90
2019-06-01T06:05:45.641Z,26.90
2019-06-01T06:08:17.972Z,27.40
2019-06-01T06:10:47.784Z,28.00
2019-06-01T06:13:19.307Z,28.70
2019-06-01T06:15:49.382Z,29.40
2019-06-01T06:18:19.811Z,30.20
2019-06-01T06:20:49.396Z,31.00
2019-06-01T06:23:18.928Z,31.70
2019-06-01T06:25:48.893Z,32.30
2019-06-01T06:28:18.799Z,32.90
2019-06-01T06:30:49.068Z,33.50
2019-06-01T06:33:19.449Z,33.20
2019-06-01T06:35:48.856Z,32.50
2019-06-01T06:38:18.245Z,32.50
2019-06-01T06:40:47.960Z,32.80
2019-06-01T06:43:23.646Z,33.00
2019-06-01T06:45:50.832Z,33.60
2019-06-01T06:48:21.264Z,34.10
2019-06-01T06:50:50.790Z,34.60
2019-06-01T06:53:28.468Z,35.10
2019-06-01T06:55:51.718Z,35.20
2019-06-01T06:58:22.439Z,35.30
2019-06-01T07:00:53.490Z,35.30
2019-06-01T07:03:23.548Z,35.70
2019-06-01T07:05:53.515Z,36.30
2019-06-01T07:08:23.885Z,37.10
2019-06-01T07:10:54.310Z,36.40
2019-06-01T07:13:23.985Z,36.60
2019-06-01T07:15:53.385Z,36.70
2019-06-01T07:18:25.652Z,37.10
2019-06-01T07:20:55.123Z,37.90
2019-06-01T07:23:25.808Z,38.00
2019-06-01T07:25:55.859Z,37.50
2019-06-01T07:28:26.203Z,37.20
2019-06-01T07:30:55.731Z,37.20
2019-06-01T07:33:26.364Z,37.60
2019-06-01T07:35:56.458Z,38.00
2019-06-01T07:38:26.788Z,37.90
2019-06-01T07:40:57.718Z,37.60
2019-06-01T07:43:27.428Z,37.40
2019-06-01T07:45:57.649Z,37.20
2019-06-01T07:48:27.182Z,37.50
2019-06-01T07:50:57.264Z,38.30
2019-06-01T07:53:27.412Z,39.10
2019-06-01T07:55:56.985Z,39.30
2019-06-01T07:58:26.761Z,39.30
2019-06-01T08:00:56.395Z,39.60
2019-06-01T08:03:28.904Z,40.00
2019-06-01T08:05:57.292Z,39.90
2019-06-01T08:08:27.349Z,39.80
2019-06-01T08:10:57.193Z,40.00
2019-06-01T08:13:31.527Z,39.90
2019-06-01T08:16:00.650Z,40.00
2019-06-01T08:18:32.344Z,40.50
2019-06-01T08:21:02.666Z,40.90
2019-06-01T08:23:32.597Z,40.80
2019-06-01T08:26:02.640Z,41.50
2019-06-01T08:28:36.592Z,42.10
2019-06-01T08:31:06.333Z,42.70
2019-06-01T08:33:41.564Z,42.10
2019-06-01T08:36:15.384Z,42.90
2019-06-01T08:38:47.645Z,43.20
2019-06-01T08:41:18.349Z,42.60
2019-06-01T08:43:47.746Z,42.20
2019-06-01T08:46:19.361Z,42.70
2019-06-01T08:48:49.022Z,43.10
2019-06-01T08:51:18.996Z,43.40
2019-06-01T08:53:49.133Z,43.40
2019-06-01T08:56:21.808Z,42.50
2019-06-01T08:58:49.619Z,41.40
2019-06-01T09:01:19.022Z,41.00
2019-06-01T09:03:48.949Z,41.10
2019-06-01T09:06:18.352Z,41.40
2019-06-01T09:08:48.070Z,41.80
2019-06-01T09:11:18.857Z,41.70
2019-06-01T09:13:52.613Z,42.40
2019-06-01T09:16:22.304Z,42.80
2019-06-01T09:18:53.226Z,41.20
2019-06-01T09:21:22.777Z,40.60
2019-06-01T09:23:52.393Z,41.00
2019-06-01T09:26:22.425Z,40.40
2019-06-01T09:28:51.823Z,41.10
2019-06-01T09:31:22.083Z,41.10
2019-06-01T09:33:52.427Z,41.80
2019-06-01T09:36:22.498Z,42.10
2019-06-01T09:38:55.416Z,42.00
2019-06-01T09:41:26.525Z,42.20
2019-06-01T09:43:55.867Z,42.20
2019-06-01T09:46:26.900Z,41.60
2019-06-01T09:48:56.478Z,40.90
2019-06-01T09:51:27.352Z,39.80
2019-06-01T09:53:58.637Z,39.80
2019-06-01T09:56:30.874Z,40.30
2019-06-01T09:59:02.456Z,39.80
2019-06-01T10:01:34.470Z,39.10
2019-06-01T10:04:03.924Z,38.20
2019-06-01T10:06:34.677Z,37.10
2019-06-01T10:09:06.322Z,35.60
2019-06-01T10:11:36.556Z,34.30
2019-06-01T10:14:06.181Z,33.30
2019-06-01T10:16:39.819Z,32.10
2019-06-01T10:19:09.593Z,31.10
2019-06-01T10:21:39.611Z,30.30
2019-06-01T10:24:12.457Z,29.80
2019-06-01T10:26:43.079Z,29.20
2019-06-01T10:29:12.566Z,28.80
2019-06-01T10:31:43.989Z,28.50
2019-06-01T10:34:13.809Z,28.10
2019-06-01T10:36:44.498Z,27.50
2019-06-01T10:39:14.551Z,27.30
2019-06-01T10:41:44.493Z,27.00
2019-06-01T10:44:14.714Z,26.90
2019-06-01T10:46:44.762Z,27.00
2019-06-01T10:49:14.214Z,26.80
2019-06-01T10:51:43.711Z,26.70
2019-06-01T10:54:13.891Z,26.70
2019-06-01T10:56:44.659Z,26.70
2019-06-01T10:59:15.535Z,26.70
2019-06-01T11:01:51.558Z,26.60
2019-06-01T11:04:22.233Z,26.70
2019-06-01T11:06:53.154Z,26.60
2019-06-01T11:09:25.651Z,26.40
2019-06-01T11:11:55.794Z,26.40
2019-06-01T11:14:25.157Z,26.50
2019-06-01T11:16:56.420Z,26.60
2019-06-01T11:19:26.269Z,26.70
2019-06-01T11:21:55.778Z,26.70
2019-06-01T11:24:25.614Z,26.90
2019-06-01T11:26:55.064Z,27.10
2019-06-01T11:29:24.859Z,27.10
2019-06-01T11:31:54.293Z,27.10
2019-06-01T11:34:24.727Z,27.20
2019-06-01T11:37:04.914Z,27.40
2019-06-01T11:39:25.213Z,27.20
2019-06-01T11:41:55.653Z,27.20
2019-06-01T11:44:25.533Z,27.00
2019-06-01T11:46:55.904Z,27.10
2019-06-01T11:49:26.133Z,27.30
2019-06-01T11:51:55.512Z,27.40
2019-06-01T11:54:24.905Z,27.60
2019-06-01T11:56:54.541Z,27.70
2019-06-01T11:59:26.759Z,27.80
2019-06-01T12:01:58.426Z,27.80
2019-06-01T12:04:28.203Z,27.70
2019-06-01T12:07:13.695Z,27.60
2019-06-01T12:09:35.711Z,27.50
2019-06-01T12:12:05.844Z,27.20
2019-06-01T12:14:36.297Z,26.90
2019-06-01T12:17:06.136Z,27.00
2019-06-01T12:19:36.513Z,26.90
2019-06-01T12:22:06.348Z,26.90
2019-06-01T12:24:38.824Z,26.90
2019-06-01T12:27:08.359Z,26.90
2019-06-01T12:29:37.792Z,26.70
2019-06-01T12:32:07.966Z,26.60
2019-06-01T12:34:39.961Z,26.60
2019-06-01T12:37:12.079Z,26.50
2019-06-01T12:39:42.336Z,26.50
2019-06-01T12:42:11.751Z,26.40
2019-06-01T12:44:45.861Z,26.60
2019-06-01T12:47:17.112Z,26.80
2019-06-01T12:49:48.291Z,27.00
2019-06-01T12:52:19.029Z,27.20
2019-06-01T12:54:49.844Z,27.20
2019-06-01T12:57:25.178Z,27.10
2019-06-01T12:59:54.696Z,27.10
2019-06-01T13:02:24.098Z,27.00
2019-06-01T13:04:53.952Z,27.00
2019-06-01T13:07:23.284Z,27.00
2019-06-01T13:09:52.921Z,27.20
2019-06-01T13:12:22.576Z,27.30
2019-06-01T13:14:52.480Z,27.40
2019-06-01T13:17:21.893Z,27.40
2019-06-01T13:19:51.633Z,27.60
2019-06-01T13:22:21.066Z,27.70
2019-06-01T13:24:51.918Z,27.60
2019-06-01T13:27:21.528Z,27.50
2019-06-01T13:29:52.134Z,27.20
2019-06-01T13:32:22.221Z,27.20
2019-06-01T13:34:51.825Z,27.20
2019-06-01T13:37:21.204Z,27.10
2019-06-01T13:39:55.994Z,27.20
2019-06-01T13:42:21.657Z,27.20
2019-06-01T13:44:51.633Z,27.10
2019-06-01T13:47:21.045Z,27.20
2019-06-01T13:49:51.890Z,27.20
2019-06-01T13:52:23.124Z,27.00
2019-06-01T13:54:52.910Z,27.00
2019-06-01T13:57:22.553Z,26.90
2019-06-01T13:59:53.018Z,26.90
2019-06-01T14:02:22.402Z,26.80
2019-06-01T14:04:52.271Z,26.80
2019-06-01T14:07:21.658Z,27.00
2019-06-01T14:09:52.209Z,27.20
2019-06-01T14:12:22.254Z,27.10
2019-06-01T14:14:53.440Z,27.10
2019-06-01T14:17:23.060Z,27.20
2019-06-01T14:19:53.796Z,27.20
2019-06-01T14:22:23.229Z,27.40
2019-06-01T14:25:08.371Z,27.50
2019-06-01T14:27:24.125Z,27.60
2019-06-01T14:29:54.431Z,27.60
2019-06-01T14:32:23.813Z,27.70
2019-06-01T14:34:53.351Z,27.90
2019-06-01T14:37:25.649Z,28.00
2019-06-01T14:39:55.283Z,28.10
2019-06-01T14:42:24.989Z,28.00
2019-06-01T14:44:58.151Z,27.90
2019-06-01T14:47:32.817Z,27.80
2019-06-01T14:50:08.852Z,27.70
2019-06-01T14:52:43.950Z,27.70
2019-06-01T14:55:19.160Z,27.90
2019-06-01T14:57:55.989Z,28.10
2019-06-01T15:00:25.413Z,28.30
2019-06-01T15:02:54.808Z,28.30
2019-06-01T15:05:27.728Z,28.50
2019-06-01T15:07:57.552Z,28.50
2019-06-01T15:10:28.548Z,28.70
2019-06-01T15:13:02.662Z,28.80
2019-06-01T15:15:29.289Z,28.80
2019-06-01T15:17:58.708Z,28.70
2019-06-01T15:20:28.416Z,28.70
2019-06-01T15:22:59.143Z,28.60
2019-06-01T15:25:34.845Z,28.60
2019-06-01T15:28:11.990Z,28.50
2019-06-01T15:30:41.338Z,28.60
2019-06-01T15:33:10.709Z,28.50
2019-06-01T15:35:40.368Z,28.50
2019-06-01T15:38:09.860Z,28.50
2019-06-01T15:40:39.221Z,28.40
2019-06-01T15:43:08.983Z,28.30
2019-06-01T15:45:41.225Z,28.00
2019-06-01T15:48:09.854Z,27.70
2019-06-01T15:50:45.776Z,27.60
2019-06-01T15:53:16.176Z,27.70
2019-06-01T15:55:45.577Z,27.70
2019-06-01T15:58:16.283Z,27.70
2019-06-01T16:00:46.208Z,27.70
2019-06-01T16:03:17.170Z,27.80
2019-06-01T16:05:47.250Z,27.80
2019-06-01T16:08:18.097Z,27.70
2019-06-01T16:10:47.512Z,27.60
2019-06-01T16:13:18.101Z,27.30
2019-06-01T16:15:47.497Z,27.10
2019-06-01T16:18:18.555Z,26.90
2019-06-01T16:20:48.924Z,26.90
2019-06-01T16:23:18.476Z,26.80
2019-06-01T16:25:59.687Z,26.80
2019-06-01T16:28:20.709Z,26.70
2019-06-01T16:30:54.370Z,26.70
2019-06-01T16:33:24.090Z,26.70
2019-06-01T16:35:54.842Z,26.60
2019-06-01T16:38:24.303Z,26.60
2019-06-01T16:40:55.103Z,26.70
2019-06-01T16:43:24.617Z,26.60
2019-06-01T16:45:55.481Z,26.50
2019-06-01T16:48:26.348Z,26.30
2019-06-01T16:50:56.085Z,26.30
2019-06-01T16:53:25.617Z,26.30
2019-06-01T16:55:55.830Z,26.20
2019-06-01T16:58:25.806Z,26.10
2019-06-01T17:00:56.347Z,26.10
2019-06-01T17:03:26.448Z,26.10
2019-06-01T17:05:56.649Z,26.10
2019-06-01T17:08:26.695Z,26.20
2019-06-01T17:10:56.669Z,26.10
2019-06-01T17:13:26.794Z,26.00
2019-06-01T17:15:56.846Z,25.90
2019-06-01T17:18:26.606Z,25.80
2019-06-01T17:20:57.268Z,25.70
2019-06-01T17:23:29.390Z,25.70
2019-06-01T17:25:58.453Z,25.80
2019-06-01T17:28:28.371Z,25.80
2019-06-01T17:30:58.402Z,25.80
2019-06-01T17:33:29.871Z,25.80
2019-06-01T17:36:00.610Z,25.80
2019-06-01T17:38:30.280Z,25.80
2019-06-01T17:41:00.252Z,25.70
2019-06-01T17:43:29.980Z,25.80
2019-06-01T17:46:00.462Z,25.70
2019-06-01T17:48:30.583Z,25.80
2019-06-01T17:51:02.602Z,25.60
2019-06-01T17:53:36.547Z,25.60
2019-06-01T17:56:06.129Z,25.60
2019-06-01T17:58:36.343Z,25.60
2019-06-01T18:01:06.293Z,25.50
2019-06-01T18:03:35.818Z,25.40
2019-06-01T18:06:05.812Z,25.40
2019-06-01T18:08:35.443Z,25.30
2019-06-01T18:11:05.978Z,25.30
2019-06-01T18:13:35.720Z,25.20
2019-06-01T18:16:06.254Z,25.20
2019-06-01T18:18:36.095Z,25.10
2019-06-01T18:21:08.451Z,25.00
2019-06-01T18:23:37.937Z,25.00
2019-06-01T18:26:07.265Z,24.90
2019-06-01T18:28:36.868Z,24.80
2019-06-01T18:31:06.718Z,24.80
2019-06-01T18:33:37.222Z,24.60
2019-06-01T18:36:07.599Z,24.60
2019-06-01T18:38:37.810Z,24.50
2019-06-01T18:41:15.840Z,24.40
2019-06-01T18:43:39.093Z,24.30
2019-06-01T18:46:08.566Z,24.20
2019-06-01T18:48:37.970Z,24.10
2019-06-01T18:51:08.108Z,24.00
2019-06-01T18:53:37.865Z,23.90
2019-06-01T18:56:08.168Z,23.80
2019-06-01T18:58:38.151Z,23.70
2019-06-01T19:01:08.408Z,23.70
2019-06-01T19:03:37.892Z,23.60
2019-06-01T19:06:07.674Z,23.50
2019-06-01T19:08:37.382Z,23.30
2019-06-01T19:11:06.815Z,23.30
2019-06-01T19:13:36.500Z,23.20
2019-06-01T19:16:05.945Z,23.10
2019-06-01T19:18:35.600Z,23.00
2019-06-01T19:21:06.438Z,22.90
2019-06-01T19:23:36.297Z,22.90
2019-06-01T19:26:10.148Z,22.80
2019-06-01T19:28:37.908Z,22.70
2019-06-01T19:31:07.294Z,22.70
2019-06-01T19:33:36.680Z,22.60
2019-06-01T19:36:07.019Z,22.50
2019-06-01T19:38:38.151Z,22.50
2019-06-01T19:41:07.513Z,22.50
2019-06-01T19:43:37.527Z,22.40
2019-06-01T19:46:07.662Z,22.30
2019-06-01T19:48:37.403Z,22.20
2019-06-01T19:51:08.629Z,22.10
2019-06-01T19:53:38.313Z,22.00
2019-06-01T19:56:08.764Z,21.90
2019-06-01T19:58:38.289Z,21.90
2019-06-01T20:01:08.349Z,21.80
2019-06-01T20:03:38.388Z,21.80
2019-06-01T20:06:08.315Z,21.70
2019-06-01T20:08:37.882Z,21.70
2019-06-01T20:11:08.240Z,21.60
2019-06-01T20:13:42.468Z,21.60
2019-06-01T20:16:12.356Z,21.50
2019-06-01T20:18:42.328Z,21.40
2019-06-01T20:21:12.125Z,21.20
2019-06-01T20:23:41.512Z,21.20
2019-06-01T20:26:11.423Z,21.00
2019-06-01T20:28:41.401Z,20.80
2019-06-01T20:31:16.274Z,20.80
2019-06-01T20:33:45.722Z,20.70
2019-06-01T20:36:18.118Z,20.70
2019-06-01T20:38:50.801Z,20.70
2019-06-01T20:41:22.652Z,20.70
2019-06-01T20:43:56.585Z,20.60
2019-06-01T20:46:28.187Z,20.50
2019-06-01T20:48:59.915Z,20.50
2019-06-01T20:51:32.650Z,20.50
2019-06-01T20:54:06.615Z,20.50
2019-06-01T20:56:38.791Z,20.40
2019-06-01T20:59:09.566Z,20.40
2019-06-01T21:01:48.134Z,20.30
2019-06-01T21:04:22.368Z,20.30
2019-06-01T21:06:53.544Z,20.20
2019-06-01T21:09:30.028Z,20.20
2019-06-01T21:12:03.573Z,20.10
2019-06-01T21:14:36.949Z,20.10
2019-06-01T21:17:09.882Z,20.00
2019-06-01T21:19:40.738Z,19.90
2019-06-01T21:22:12.235Z,19.90
2019-06-01T21:24:43.150Z,19.80
2019-06-01T21:27:20.770Z,19.80
2019-06-01T21:30:01.275Z,19.70
2019-06-01T21:32:31.971Z,19.60
2019-06-01T21:35:03.369Z,19.60
2019-06-01T21:40:06.051Z,19.50
2019-06-01T21:42:38.499Z,19.50
2019-06-01T21:45:08.031Z,19.40
2019-06-01T21:47:37.528Z,19.30
2019-06-01T21:50:07.381Z,19.30
2019-06-01T21:52:37.417Z,19.30
2019-06-01T21:55:07.673Z,19.20
2019-06-01T21:57:37.370Z,19.20
2019-06-01T22:00:09.597Z,19.20
2019-06-01T22:02:39.254Z,19.20
2019-06-01T22:05:09.338Z,19.10
2019-06-01T22:07:38.802Z,19.10
2019-06-01T22:10:08.507Z,19.00
2019-06-01T22:12:37.933Z,19.00
2019-06-01T22:15:07.531Z,18.90
2019-06-01T22:17:36.924Z,18.90
2019-06-01T22:20:07.448Z,18.90
2019-06-01T22:22:37.830Z,18.80
2019-06-01T22:25:07.369Z,18.70
2019-06-01T22:27:38.503Z,18.70
2019-06-01T22:30:08.615Z,18.70
2019-06-01T22:32:38.046Z,18.60
2019-06-01T22:35:08.369Z,18.60
2019-06-01T22:37:38.352Z,18.50
2019-06-01T22:40:08.075Z,18.50
2019-06-01T22:42:37.470Z,18.40
2019-06-01T22:45:07.293Z,18.40
2019-06-01T22:47:47.684Z,18.40
2019-06-01T22:50:18.082Z,18.30
2019-06-01T22:52:47.992Z,18.30
2019-06-01T22:55:18.053Z,18.30
2019-06-01T22:57:47.440Z,18.30
2019-06-01T23:00:19.254Z,18.30
2019-06-01T23:02:48.645Z,18.20
2019-06-01T23:05:18.071Z,18.20
2019-06-01T23:07:47.492Z,18.20
2019-06-01T23:10:18.653Z,18.10
2019-06-01T23:12:48.290Z,18.10
2019-06-01T23:15:18.690Z,18.00
2019-06-01T23:17:48.381Z,18.00
2019-06-01T23:20:18.152Z,17.90
2019-06-01T23:22:47.557Z,17.80
2019-06-01T23:25:18.646Z,17.80
2019-06-01T23:27:47.980Z,17.70
2019-06-01T23:30:21.989Z,17.70
2019-06-01T23:32:51.468Z,17.60
2019-06-01T23:35:22.330Z,17.60
2019-06-01T23:37:52.968Z,17.60
2019-06-01T23:40:22.894Z,17.50
2019-06-01T23:42:52.253Z,17.50
2019-06-01T23:45:22.581Z,17.50
2019-06-01T23:47:51.974Z,17.50
2019-06-01T23:50:21.625Z,17.50
2019-06-01T23:52:51.386Z,17.50
2019-06-01T23:55:20.813Z,17.40
2019-06-01T23:57:50.194Z,17.30
